createdAt,value
2018-03-15T00:00:57.095Z,982.84
2018-03-15T00:01:57.176Z,982.82
2018-03-15T00:02:57.151Z,982.84
2018-03-15T00:03:57.182Z,982.86
2018-03-15T00:04:57.212Z,982.82
2018-03-15T00:05:57.239Z,982.86
2018-03-15T00:06:57.268Z,982.85
2018-03-15T00:07:57.298Z,982.87
2018-03-15T00:08:57.329Z,982.90
2018-03-15T00:09:57.355Z,982.84
2018-03-15T00:10:57.383Z,982.81
2018-03-15T00:11:57.411Z,982.84
2018-03-15T00:12:57.442Z,982.79
2018-03-15T00:13:57.470Z,982.76
2018-03-15T00:14:57.500Z,982.75
2018-03-15T00:15:57.528Z,982.74
2018-03-15T00:16:57.556Z,982.77
2018-03-15T00:17:57.585Z,982.78
2018-03-15T00:18:57.618Z,982.77
2018-03-15T00:19:57.642Z,982.80
2018-03-15T00:20:57.671Z,982.77
2018-03-15T00:21:57.699Z,982.78
2018-03-15T00:22:57.729Z,982.78
2018-03-15T00:23:57.757Z,982.81
2018-03-15T00:24:57.787Z,982.78
2018-03-15T00:25:57.815Z,982.79
2018-03-15T00:26:57.845Z,982.79
2018-03-15T00:27:57.873Z,982.75
2018-03-15T00:28:57.901Z,982.79
2018-03-15T00:29:57.933Z,982.75
2018-03-15T00:30:57.958Z,982.74
2018-03-15T00:31:57.987Z,982.75
2018-03-15T00:32:58.016Z,982.76
2018-03-15T00:33:58.044Z,982.70
2018-03-15T00:34:58.073Z,982.73
2018-03-15T00:35:58.102Z,982.76
2018-03-15T00:36:58.130Z,982.78
2018-03-15T00:37:58.159Z,982.74
2018-03-15T00:38:58.187Z,982.81
2018-03-15T00:39:58.219Z,982.76
2018-03-15T00:40:58.244Z,982.81
2018-03-15T00:41:58.272Z,982.75
2018-03-15T00:42:58.302Z,982.71
2018-03-15T00:43:58.330Z,982.75
2018-03-15T00:44:58.359Z,982.68
2018-03-15T00:45:58.388Z,982.70
2018-03-15T00:46:58.416Z,982.67
2018-03-15T00:47:58.445Z,982.68
2018-03-15T00:48:58.473Z,982.70
2018-03-15T00:49:58.501Z,982.63
2018-03-15T00:50:58.530Z,982.59
2018-03-15T00:51:58.559Z,982.56
2018-03-15T00:52:58.587Z,982.51
2018-03-15T00:53:58.616Z,982.42
2018-03-15T00:54:58.644Z,982.45
2018-03-15T00:55:58.676Z,982.49
2018-03-15T00:56:58.701Z,982.48
2018-03-15T00:57:58.730Z,982.42
2018-03-15T00:58:58.757Z,982.51
2018-03-15T00:59:58.786Z,982.44
2018-03-15T01:00:58.815Z,982.49
2018-03-15T01:01:58.842Z,982.48
2018-03-15T01:02:58.877Z,982.42
2018-03-15T01:03:58.900Z,982.46
2018-03-15T01:04:58.929Z,982.47
2018-03-15T01:05:58.956Z,982.40
2018-03-15T01:06:58.984Z,982.41
2018-03-15T01:07:59.014Z,982.33
2018-03-15T01:08:59.042Z,982.26
2018-03-15T01:09:59.070Z,982.23
2018-03-15T01:10:59.099Z,982.22
2018-03-15T01:11:59.127Z,982.25
2018-03-15T01:12:59.156Z,982.19
2018-03-15T01:13:59.184Z,982.22
2018-03-15T01:14:59.212Z,982.25
2018-03-15T01:15:59.241Z,982.19
2018-03-15T01:16:59.269Z,982.19
2018-03-15T01:17:59.299Z,982.18
2018-03-15T01:18:59.326Z,982.19
2018-03-15T01:19:59.355Z,982.13
2018-03-15T01:20:59.384Z,982.15
2018-03-15T01:21:59.411Z,982.13
2018-03-15T01:22:59.440Z,982.13
2018-03-15T01:23:59.473Z,982.10
2018-03-15T01:24:59.496Z,982.09
2018-03-15T01:25:59.524Z,982.07
2018-03-15T01:26:59.553Z,982.05
2018-03-15T01:27:59.582Z,982.04
2018-03-15T01:28:59.666Z,982.02
2018-03-15T01:29:59.641Z,982.00
2018-03-15T01:30:59.667Z,981.99
2018-03-15T01:31:59.694Z,981.91
2018-03-15T01:32:59.724Z,981.87
2018-03-15T01:33:59.752Z,981.85
2018-03-15T01:34:59.779Z,981.81
2018-03-15T01:35:59.827Z,981.81
2018-03-15T01:36:59.839Z,981.83
2018-03-15T01:37:59.864Z,981.83
2018-03-15T01:38:59.893Z,981.88
2018-03-15T01:39:59.922Z,981.81
2018-03-15T01:40:59.951Z,981.80
2018-03-15T01:41:59.978Z,981.78
2018-03-15T01:43:00.006Z,981.81
2018-03-15T01:44:00.035Z,981.84
2018-03-15T01:45:00.064Z,981.83
2018-03-15T01:46:00.092Z,981.79
2018-03-15T01:47:00.120Z,981.85
2018-03-15T01:48:00.148Z,981.79
2018-03-15T01:49:00.176Z,981.81
2018-03-15T01:50:00.203Z,981.77
2018-03-15T01:51:00.233Z,981.78
2018-03-15T01:52:00.262Z,981.79
2018-03-15T01:53:00.290Z,981.78
2018-03-15T01:54:00.316Z,981.75
2018-03-15T01:55:00.346Z,981.68
2018-03-15T01:56:00.374Z,981.64
2018-03-15T01:57:00.403Z,981.63
2018-03-15T01:58:00.433Z,981.60
2018-03-15T01:59:00.458Z,981.57
2018-03-15T02:00:00.487Z,981.57
2018-03-15T02:01:00.517Z,981.63
2018-03-15T02:02:00.543Z,981.62
2018-03-15T02:03:00.572Z,981.66
2018-03-15T02:04:00.601Z,981.66
2018-03-15T02:05:00.630Z,981.68
2018-03-15T02:06:00.662Z,981.70
2018-03-15T02:07:00.684Z,981.70
2018-03-15T02:08:00.714Z,981.66
2018-03-15T02:09:00.741Z,981.63
2018-03-15T02:10:00.770Z,981.60
2018-03-15T02:11:00.798Z,981.56
2018-03-15T02:12:00.846Z,981.53
2018-03-15T02:13:00.859Z,981.55
2018-03-15T02:14:00.882Z,981.53
2018-03-15T02:15:00.911Z,981.52
2018-03-15T02:16:00.939Z,981.54
2018-03-15T02:17:00.968Z,981.51
2018-03-15T02:18:00.995Z,981.50
2018-03-15T02:19:01.025Z,981.45
2018-03-15T02:20:01.056Z,981.42
2018-03-15T02:21:01.081Z,981.40
2018-03-15T02:22:01.162Z,981.39
2018-03-15T02:23:01.138Z,981.37
2018-03-15T02:24:01.169Z,981.37
2018-03-15T02:25:01.193Z,981.39
2018-03-15T02:26:01.221Z,981.35
2018-03-15T02:27:01.250Z,981.35
2018-03-15T02:28:01.278Z,981.37
2018-03-15T02:29:01.307Z,981.33
2018-03-15T02:30:01.337Z,981.31
2018-03-15T02:31:01.365Z,981.28
2018-03-15T02:32:01.393Z,981.23
2018-03-15T02:33:01.426Z,981.23
2018-03-15T02:34:01.448Z,981.22
2018-03-15T02:35:01.477Z,981.20
2018-03-15T02:36:01.506Z,981.22
2018-03-15T02:37:01.533Z,981.22
2018-03-15T02:38:01.561Z,981.21
2018-03-15T02:39:01.589Z,981.18
2018-03-15T02:40:01.616Z,981.21
2018-03-15T02:41:01.646Z,981.18
2018-03-15T02:42:01.674Z,981.13
2018-03-15T02:43:01.701Z,981.14
2018-03-15T02:44:01.732Z,981.16
2018-03-15T02:45:01.759Z,981.09
2018-03-15T02:46:01.786Z,981.09
2018-03-15T02:47:01.816Z,981.14
2018-03-15T02:48:01.847Z,981.07
2018-03-15T02:49:01.872Z,981.11
2018-03-15T02:50:01.905Z,981.11
2018-03-15T02:51:01.930Z,981.09
2018-03-15T02:52:01.955Z,981.14
2018-03-15T02:53:01.985Z,981.04
2018-03-15T02:54:02.033Z,981.03
2018-03-15T02:55:02.039Z,981.02
2018-03-15T02:56:02.069Z,981.03
2018-03-15T02:57:02.102Z,980.98
2018-03-15T02:58:02.123Z,980.98
2018-03-15T02:59:02.154Z,980.97
2018-03-15T03:00:02.181Z,980.92
2018-03-15T03:01:02.208Z,980.94
2018-03-15T03:02:02.246Z,980.94
2018-03-15T03:03:02.322Z,980.97
2018-03-15T03:04:02.296Z,980.94
2018-03-15T03:05:02.324Z,980.93
2018-03-15T03:06:02.347Z,980.89
2018-03-15T03:07:02.419Z,980.94
2018-03-15T03:08:02.406Z,980.92
2018-03-15T03:09:02.431Z,980.93
2018-03-15T03:10:02.458Z,980.91
2018-03-15T03:11:02.486Z,980.90
2018-03-15T03:12:02.513Z,980.87
2018-03-15T03:13:02.546Z,980.87
2018-03-15T03:14:02.577Z,980.85
2018-03-15T03:15:02.598Z,980.80
2018-03-15T03:16:02.626Z,980.77
2018-03-15T03:17:02.654Z,980.77
2018-03-15T03:18:02.681Z,980.77
2018-03-15T03:19:02.713Z,980.76
2018-03-15T03:20:02.736Z,980.76
2018-03-15T03:21:02.765Z,980.71
2018-03-15T03:22:02.797Z,980.70
2018-03-15T03:23:02.820Z,980.69
2018-03-15T03:24:02.849Z,980.63
2018-03-15T03:25:02.877Z,980.70
2018-03-15T03:26:02.903Z,980.62
2018-03-15T03:27:02.934Z,980.64
2018-03-15T03:28:02.959Z,980.61
2018-03-15T03:29:02.989Z,980.58
2018-03-15T03:30:03.016Z,980.58
2018-03-15T03:31:03.043Z,980.55
2018-03-15T03:32:03.071Z,980.54
2018-03-15T03:33:03.099Z,980.60
2018-03-15T03:34:03.125Z,980.58
2018-03-15T03:35:03.154Z,980.58
2018-03-15T03:36:03.182Z,980.56
2018-03-15T03:37:03.210Z,980.61
2018-03-15T03:38:03.237Z,980.55
2018-03-15T03:39:03.264Z,980.58
2018-03-15T03:40:03.293Z,980.55
2018-03-15T03:41:03.321Z,980.54
2018-03-15T03:42:03.347Z,980.52
2018-03-15T03:43:03.375Z,980.45
2018-03-15T03:44:03.410Z,980.47
2018-03-15T03:45:03.432Z,980.40
2018-03-15T03:46:03.459Z,980.40
2018-03-15T03:47:03.488Z,980.37
2018-03-15T03:48:03.515Z,980.37
2018-03-15T03:49:03.545Z,980.34
2018-03-15T03:50:03.571Z,980.28
2018-03-15T03:51:03.599Z,980.26
2018-03-15T03:52:03.626Z,980.22
2018-03-15T03:53:03.655Z,980.23
2018-03-15T03:54:03.680Z,980.17
2018-03-15T03:55:03.711Z,980.13
2018-03-15T03:56:03.738Z,980.07
2018-03-15T03:57:03.768Z,980.09
2018-03-15T03:58:03.792Z,980.12
2018-03-15T03:59:03.820Z,980.09
2018-03-15T04:00:03.850Z,980.12
2018-03-15T04:01:03.880Z,980.13
2018-03-15T04:02:03.903Z,980.10
2018-03-15T04:03:03.932Z,980.09
2018-03-15T04:04:03.960Z,980.12
2018-03-15T04:05:03.988Z,980.14
2018-03-15T04:06:04.015Z,980.08
2018-03-15T04:07:04.044Z,980.11
2018-03-15T04:08:04.072Z,980.13
2018-03-15T04:09:04.100Z,980.06
2018-03-15T04:10:04.129Z,980.03
2018-03-15T04:11:04.155Z,980.04
2018-03-15T04:12:04.182Z,980.00
2018-03-15T04:13:04.211Z,979.96
2018-03-15T04:14:04.244Z,979.92
2018-03-15T04:15:04.266Z,979.90
2018-03-15T04:16:04.294Z,979.96
2018-03-15T04:17:04.323Z,979.96
2018-03-15T04:18:04.350Z,979.94
2018-03-15T04:19:04.377Z,979.92
2018-03-15T04:20:04.406Z,979.89
2018-03-15T04:21:04.434Z,979.89
2018-03-15T04:22:04.462Z,979.89
2018-03-15T04:23:04.489Z,979.83
2018-03-15T04:24:04.516Z,979.84
2018-03-15T04:25:04.546Z,979.83
2018-03-15T04:26:04.572Z,979.75
2018-03-15T04:27:04.605Z,979.77
2018-03-15T04:28:04.629Z,979.71
2018-03-15T04:29:04.658Z,979.71
2018-03-15T04:30:04.684Z,979.66
2018-03-15T04:31:04.711Z,979.71
2018-03-15T04:32:04.749Z,979.67
2018-03-15T04:33:04.770Z,979.67
2018-03-15T04:34:04.796Z,979.60
2018-03-15T04:35:04.825Z,979.57
2018-03-15T04:36:04.853Z,979.52
2018-03-15T04:37:04.880Z,979.54
2018-03-15T04:38:04.908Z,979.53
2018-03-15T04:39:04.935Z,979.51
2018-03-15T04:40:04.964Z,979.49
2018-03-15T04:41:04.992Z,979.46
2018-03-15T04:42:05.019Z,979.51
2018-03-15T04:43:05.047Z,979.56
2018-03-15T04:44:05.075Z,979.57
2018-03-15T04:45:05.103Z,979.58
2018-03-15T04:46:05.130Z,979.53
2018-03-15T04:47:05.160Z,979.59
2018-03-15T04:48:05.190Z,979.54
2018-03-15T04:49:05.217Z,979.53
2018-03-15T04:50:05.243Z,979.54
2018-03-15T04:51:05.273Z,979.52
2018-03-15T04:52:05.300Z,979.48
2018-03-15T04:53:05.329Z,979.51
2018-03-15T04:54:05.356Z,979.47
2018-03-15T04:55:05.384Z,979.41
2018-03-15T04:56:05.412Z,979.46
2018-03-15T04:57:05.440Z,979.40
2018-03-15T04:58:05.467Z,979.39
2018-03-15T04:59:05.497Z,979.41
2018-03-15T05:00:05.524Z,979.40
2018-03-15T05:01:05.554Z,979.44
2018-03-15T05:02:05.582Z,979.45
2018-03-15T05:03:05.610Z,979.41
2018-03-15T05:04:05.638Z,979.48
2018-03-15T05:05:05.667Z,979.46
2018-03-15T05:06:05.692Z,979.46
2018-03-15T05:07:05.722Z,979.41
2018-03-15T05:08:05.749Z,979.43
2018-03-15T05:09:05.777Z,979.42
2018-03-15T05:10:05.806Z,979.38
2018-03-15T05:11:05.869Z,979.38
2018-03-15T05:12:05.862Z,979.37
2018-03-15T05:13:05.892Z,979.39
2018-03-15T05:14:05.918Z,979.34
2018-03-15T05:15:05.946Z,979.32
2018-03-15T05:16:05.974Z,979.32
2018-03-15T05:17:06.001Z,979.31
2018-03-15T05:18:06.030Z,979.29
2018-03-15T05:19:06.062Z,979.26
2018-03-15T05:20:06.087Z,979.33
2018-03-15T05:21:06.115Z,979.27
2018-03-15T05:22:06.143Z,979.29
2018-03-15T05:23:06.172Z,979.30
2018-03-15T05:24:06.200Z,979.25
2018-03-15T05:25:06.229Z,979.34
2018-03-15T05:26:06.254Z,979.28
2018-03-15T05:27:06.283Z,979.36
2018-03-15T05:28:06.311Z,979.32
2018-03-15T05:29:06.338Z,979.30
2018-03-15T05:30:06.367Z,979.28
2018-03-15T05:31:06.394Z,979.29
2018-03-15T05:32:06.421Z,979.24
2018-03-15T05:33:06.449Z,979.22
2018-03-15T05:34:06.478Z,979.22
2018-03-15T05:35:06.504Z,979.22
2018-03-15T05:36:06.533Z,979.19
2018-03-15T05:37:06.561Z,979.21
2018-03-15T05:38:06.588Z,979.23
2018-03-15T05:39:06.619Z,979.21
2018-03-15T05:40:06.644Z,979.22
2018-03-15T05:41:06.673Z,979.17
2018-03-15T05:42:06.699Z,979.21
2018-03-15T05:43:06.727Z,979.19
2018-03-15T05:44:06.755Z,979.15
2018-03-15T05:45:06.788Z,979.16
2018-03-15T05:46:06.811Z,979.21
2018-03-15T05:47:06.837Z,979.18
2018-03-15T05:48:06.866Z,979.14
2018-03-15T05:49:06.893Z,979.15
2018-03-15T05:50:06.921Z,979.11
2018-03-15T05:51:06.947Z,979.13
2018-03-15T05:52:06.976Z,979.08
2018-03-15T05:53:07.004Z,979.10
2018-03-15T05:54:07.031Z,979.05
2018-03-15T05:55:07.057Z,978.99
2018-03-15T05:56:07.085Z,978.99
2018-03-15T05:57:07.116Z,978.90
2018-03-15T05:58:07.139Z,978.89
2018-03-15T05:59:07.167Z,978.84
2018-03-15T06:00:07.196Z,978.79
2018-03-15T06:01:07.223Z,978.79
2018-03-15T06:02:07.249Z,978.78
2018-03-15T06:03:07.277Z,978.72
2018-03-15T06:04:07.304Z,978.72
2018-03-15T06:05:07.332Z,978.76
2018-03-15T06:06:07.359Z,978.70
2018-03-15T06:07:07.386Z,978.73
2018-03-15T06:08:07.417Z,978.67
2018-03-15T06:09:07.443Z,978.68
2018-03-15T06:10:07.469Z,978.73
2018-03-15T06:11:07.497Z,978.76
2018-03-15T06:12:07.525Z,978.77
2018-03-15T06:13:07.551Z,978.86
2018-03-15T06:14:07.580Z,978.84
2018-03-15T06:15:07.606Z,978.88
2018-03-15T06:16:07.635Z,978.94
2018-03-15T06:17:07.663Z,978.93
2018-03-15T06:18:07.690Z,978.98
2018-03-15T06:19:07.718Z,979.00
2018-03-15T06:20:07.746Z,978.99
2018-03-15T06:21:07.773Z,978.95
2018-03-15T06:22:07.800Z,978.97
2018-03-15T06:23:07.838Z,978.90
2018-03-15T06:24:07.857Z,978.84
2018-03-15T06:25:07.884Z,978.82
2018-03-15T06:26:07.911Z,978.79
2018-03-15T06:27:07.938Z,978.77
2018-03-15T06:28:07.966Z,978.73
2018-03-15T06:29:07.993Z,978.71
2018-03-15T06:30:08.023Z,978.73
2018-03-15T06:31:08.051Z,978.70
2018-03-15T06:32:08.077Z,978.68
2018-03-15T06:33:08.106Z,978.71
2018-03-15T06:34:08.131Z,978.68
2018-03-15T06:35:08.158Z,978.71
2018-03-15T06:36:08.186Z,978.74
2018-03-15T06:37:08.213Z,978.68
2018-03-15T06:38:08.240Z,978.69
2018-03-15T06:39:08.268Z,978.68
2018-03-15T06:40:08.295Z,978.66
2018-03-15T06:41:08.323Z,978.63
2018-03-15T06:42:08.350Z,978.59
2018-03-15T06:43:08.380Z,978.60
2018-03-15T06:44:08.406Z,978.62
2018-03-15T06:45:08.438Z,978.59
2018-03-15T06:46:08.460Z,978.56
2018-03-15T06:47:08.487Z,978.62
2018-03-15T06:48:08.515Z,978.63
2018-03-15T06:49:08.542Z,978.58
2018-03-15T06:50:08.569Z,978.59
2018-03-15T06:51:08.597Z,978.61
2018-03-15T06:52:08.662Z,978.60
2018-03-15T06:53:08.652Z,978.62
2018-03-15T06:54:08.713Z,978.63
2018-03-15T06:55:08.705Z,978.67
2018-03-15T06:56:08.734Z,978.69
2018-03-15T06:57:08.762Z,978.76
2018-03-15T06:58:08.789Z,978.79
2018-03-15T06:59:08.817Z,978.81
2018-03-15T07:00:08.845Z,978.86
2018-03-15T07:01:08.874Z,978.86
2018-03-15T07:02:08.900Z,978.89
2018-03-15T07:03:08.927Z,978.88
2018-03-15T07:04:08.955Z,978.89
2018-03-15T07:05:08.983Z,978.81
2018-03-15T07:06:09.010Z,978.84
2018-03-15T07:07:09.038Z,978.74
2018-03-15T07:08:09.066Z,978.71
2018-03-15T07:09:09.093Z,978.68
2018-03-15T07:10:09.130Z,978.61
2018-03-15T07:11:09.148Z,978.63
2018-03-15T07:12:09.180Z,978.61
2018-03-15T07:13:09.206Z,978.60
2018-03-15T07:14:09.231Z,978.58
2018-03-15T07:15:09.267Z,978.61
2018-03-15T07:16:09.288Z,978.61
2018-03-15T07:17:09.314Z,978.56
2018-03-15T07:18:09.344Z,978.59
2018-03-15T07:19:09.372Z,978.63
2018-03-15T07:20:09.399Z,978.64
2018-03-15T07:21:09.428Z,978.66
2018-03-15T07:22:09.456Z,978.63
2018-03-15T07:23:09.484Z,978.63
2018-03-15T07:24:09.512Z,978.68
2018-03-15T07:25:09.540Z,978.63
2018-03-15T07:26:09.568Z,978.62
2018-03-15T07:27:09.595Z,978.64
2018-03-15T07:28:09.624Z,978.63
2018-03-15T07:29:09.654Z,978.62
2018-03-15T07:30:09.680Z,978.62
2018-03-15T07:31:09.708Z,978.65
2018-03-15T07:32:09.739Z,978.62
2018-03-15T07:33:09.765Z,978.63
2018-03-15T07:34:09.797Z,978.64
2018-03-15T07:35:09.822Z,978.63
2018-03-15T07:36:09.850Z,978.68
2018-03-15T07:37:09.878Z,978.68
2018-03-15T07:38:09.906Z,978.63
2018-03-15T07:39:09.935Z,978.68
2018-03-15T07:40:09.963Z,978.62
2018-03-15T07:41:09.992Z,978.61
2018-03-15T07:42:10.019Z,978.64
2018-03-15T07:43:10.048Z,978.67
2018-03-15T07:44:10.077Z,978.65
2018-03-15T07:45:10.106Z,978.61
2018-03-15T07:46:10.134Z,978.66
2018-03-15T07:47:10.163Z,978.56
2018-03-15T07:48:10.197Z,978.54
2018-03-15T07:49:10.221Z,978.61
2018-03-15T07:50:10.253Z,978.59
2018-03-15T07:51:10.280Z,978.55
2018-03-15T07:52:10.307Z,978.53
2018-03-15T07:53:10.336Z,978.51
2018-03-15T07:54:10.363Z,978.52
2018-03-15T07:55:10.393Z,978.49
2018-03-15T07:56:10.422Z,978.55
2018-03-15T07:57:10.453Z,978.57
2018-03-15T07:58:10.481Z,978.52
2018-03-15T07:59:10.510Z,978.54
2018-03-15T08:00:10.538Z,978.58
2018-03-15T08:01:10.568Z,978.51
2018-03-15T08:02:10.598Z,978.49
2018-03-15T08:03:10.626Z,978.41
2018-03-15T08:04:10.658Z,978.40
2018-03-15T08:05:10.684Z,978.45
2018-03-15T08:06:10.711Z,978.39
2018-03-15T08:07:10.742Z,978.43
2018-03-15T08:08:10.771Z,978.48
2018-03-15T08:09:10.801Z,978.46
2018-03-15T08:10:10.830Z,978.52
2018-03-15T08:11:10.858Z,978.53
2018-03-15T08:12:10.888Z,978.62
2018-03-15T08:13:10.917Z,978.65
2018-03-15T08:14:10.946Z,978.65
2018-03-15T08:15:10.976Z,978.66
2018-03-15T08:16:11.005Z,978.65
2018-03-15T08:17:11.033Z,978.64
2018-03-15T08:18:11.062Z,978.68
2018-03-15T08:19:11.091Z,978.66
2018-03-15T08:20:11.121Z,978.64
2018-03-15T08:21:11.151Z,978.62
2018-03-15T08:22:11.179Z,978.55
2018-03-15T08:23:11.208Z,978.60
2018-03-15T08:24:11.239Z,978.56
2018-03-15T08:25:11.267Z,978.50
2018-03-15T08:26:11.295Z,978.54
2018-03-15T08:27:11.323Z,978.49
2018-03-15T08:28:11.354Z,978.56
2018-03-15T08:29:11.383Z,978.59
2018-03-15T08:30:11.412Z,978.53
2018-03-15T08:31:11.440Z,978.56
2018-03-15T08:32:11.476Z,978.48
2018-03-15T08:33:11.500Z,978.43
2018-03-15T08:34:11.531Z,978.40
2018-03-15T08:35:11.556Z,978.40
2018-03-15T08:36:11.586Z,978.38
2018-03-15T08:37:11.614Z,978.33
2018-03-15T08:38:11.643Z,978.34
2018-03-15T08:39:11.671Z,978.31
2018-03-15T08:40:11.700Z,978.26
2018-03-15T08:41:11.730Z,978.25
2018-03-15T08:42:11.758Z,978.21
2018-03-15T08:43:11.792Z,978.18
2018-03-15T08:44:11.815Z,978.15
2018-03-15T08:45:11.843Z,978.13
2018-03-15T08:46:11.876Z,978.07
2018-03-15T08:47:11.902Z,978.07
2018-03-15T08:48:11.931Z,978.12
2018-03-15T08:49:11.958Z,978.01
2018-03-15T08:50:11.987Z,978.04
2018-03-15T08:51:12.017Z,978.01
2018-03-15T08:52:12.045Z,977.96
2018-03-15T08:53:12.074Z,977.87
2018-03-15T08:54:12.103Z,977.89
2018-03-15T08:55:12.131Z,977.90
2018-03-15T08:56:12.161Z,977.90
2018-03-15T08:57:12.188Z,977.95
2018-03-15T08:58:12.218Z,978.01
2018-03-15T08:59:12.245Z,978.02
2018-03-15T09:00:12.284Z,978.05
2018-03-15T09:01:12.304Z,978.06
2018-03-15T09:02:12.334Z,978.06
2018-03-15T09:03:12.361Z,978.06
2018-03-15T09:04:12.390Z,978.07
2018-03-15T09:05:12.420Z,978.03
2018-03-15T09:06:12.448Z,978.00
2018-03-15T09:07:12.477Z,978.02
2018-03-15T09:08:12.562Z,977.99
2018-03-15T09:09:12.545Z,978.03
2018-03-15T09:10:12.561Z,978.07
2018-03-15T09:11:12.592Z,978.07
2018-03-15T09:12:12.620Z,978.02
2018-03-15T09:13:12.650Z,978.07
2018-03-15T09:14:12.678Z,978.10
2018-03-15T09:15:12.711Z,978.12
2018-03-15T09:16:12.871Z,978.11
2018-03-15T09:17:12.765Z,978.12
2018-03-15T09:18:12.833Z,978.04
2018-03-15T09:19:12.864Z,978.08
2018-03-15T09:20:12.852Z,978.11
2018-03-15T09:21:12.906Z,978.09
2018-03-15T09:22:12.910Z,978.07
2018-03-15T09:23:12.938Z,978.11
2018-03-15T09:24:12.973Z,978.07
2018-03-15T09:25:13.001Z,978.14
2018-03-15T09:26:13.025Z,978.10
2018-03-15T09:27:13.054Z,978.15
2018-03-15T09:28:13.082Z,978.16
2018-03-15T09:29:13.112Z,978.08
2018-03-15T09:30:13.141Z,978.08
2018-03-15T09:31:13.170Z,978.08
2018-03-15T09:32:13.199Z,978.13
2018-03-15T09:33:13.233Z,978.13
2018-03-15T09:34:13.256Z,978.15
2018-03-15T09:35:13.287Z,978.21
2018-03-15T09:36:13.316Z,978.22
2018-03-15T09:37:13.346Z,978.21
2018-03-15T09:38:13.374Z,978.21
2018-03-15T09:39:13.409Z,978.25
2018-03-15T09:40:13.437Z,978.29
2018-03-15T09:41:13.465Z,978.28
2018-03-15T09:42:13.492Z,978.31
2018-03-15T09:43:13.524Z,978.29
2018-03-15T09:44:13.554Z,978.24
2018-03-15T09:45:13.584Z,978.28
2018-03-15T09:46:13.645Z,978.34
2018-03-15T09:47:13.643Z,978.32
2018-03-15T09:48:13.679Z,978.32
2018-03-15T09:49:13.703Z,978.34
2018-03-15T09:50:13.733Z,978.33
2018-03-15T09:51:13.788Z,978.36
2018-03-15T09:52:13.792Z,978.35
2018-03-15T09:53:13.822Z,978.30
2018-03-15T09:54:13.851Z,978.25
2018-03-15T09:55:13.883Z,978.26
2018-03-15T09:56:13.911Z,978.24
2018-03-15T09:57:13.941Z,978.26
2018-03-15T09:58:13.971Z,978.26
2018-03-15T09:59:14.000Z,978.24
2018-03-15T10:00:14.030Z,978.21
2018-03-15T10:01:14.060Z,978.21
2018-03-15T10:02:14.090Z,978.17
2018-03-15T10:03:14.121Z,978.18
2018-03-15T10:04:14.150Z,978.13
2018-03-15T10:05:14.185Z,978.11
2018-03-15T10:06:14.209Z,978.11
2018-03-15T10:07:14.238Z,978.13
2018-03-15T10:08:14.269Z,978.12
2018-03-15T10:09:14.301Z,978.11
2018-03-15T10:10:14.328Z,978.09
2018-03-15T10:11:14.358Z,978.06
2018-03-15T10:12:14.388Z,978.07
2018-03-15T10:13:14.419Z,977.98
2018-03-15T10:14:14.447Z,977.99
2018-03-15T10:15:14.478Z,977.95
2018-03-15T10:16:14.507Z,977.90
2018-03-15T10:17:14.538Z,977.91
2018-03-15T10:18:14.566Z,977.89
2018-03-15T10:19:14.602Z,977.82
2018-03-15T10:20:14.627Z,977.86
2018-03-15T10:21:14.656Z,977.78
2018-03-15T10:22:14.715Z,977.82
2018-03-15T10:23:14.715Z,977.77
2018-03-15T10:24:14.746Z,977.73
2018-03-15T10:25:26.393Z,977.69
2018-03-15T10:26:14.804Z,977.69
2018-03-15T10:27:14.836Z,977.70
2018-03-15T10:28:14.866Z,977.64
2018-03-15T10:29:14.897Z,977.62
2018-03-15T10:30:14.925Z,977.69
2018-03-15T10:31:14.954Z,977.64
2018-03-15T10:32:14.986Z,977.58
2018-03-15T10:33:15.018Z,977.54
2018-03-15T10:34:15.048Z,977.52
2018-03-15T10:35:15.075Z,977.45
2018-03-15T10:36:15.105Z,977.34
2018-03-15T10:37:15.139Z,977.40
2018-03-15T10:38:15.165Z,977.40
2018-03-15T10:39:15.201Z,977.36
2018-03-15T10:40:15.224Z,977.30
2018-03-15T10:41:15.255Z,977.29
2018-03-15T10:42:15.289Z,977.31
2018-03-15T10:43:15.315Z,977.22
2018-03-15T10:44:15.346Z,977.13
2018-03-15T10:45:15.375Z,977.06
2018-03-15T10:46:15.407Z,977.03
2018-03-15T10:47:15.434Z,977.02
2018-03-15T10:48:15.464Z,976.91
2018-03-15T10:49:15.495Z,976.76
2018-03-15T10:50:15.525Z,976.72
2018-03-15T10:51:15.559Z,976.54
2018-03-15T10:52:15.584Z,976.40
2018-03-15T10:53:15.615Z,976.45
2018-03-15T10:54:15.644Z,976.63
2018-03-15T10:55:15.675Z,976.71
2018-03-15T10:56:15.705Z,976.58
2018-03-15T10:57:15.736Z,976.44
2018-03-15T10:58:15.766Z,976.49
2018-03-15T10:59:15.795Z,976.55
2018-03-15T11:00:15.823Z,976.56
2018-03-15T11:01:15.854Z,976.69
2018-03-15T11:02:15.884Z,976.80
2018-03-15T11:03:15.920Z,976.75
2018-03-15T11:04:15.945Z,976.70
2018-03-15T11:05:15.975Z,976.80
2018-03-15T11:06:16.007Z,976.75
2018-03-15T11:07:16.033Z,976.59
2018-03-15T11:08:16.066Z,976.55
2018-03-15T11:09:16.095Z,976.57
2018-03-15T11:10:16.124Z,976.58
2018-03-15T11:11:16.155Z,976.55
2018-03-15T11:12:16.186Z,976.51
2018-03-15T11:13:16.216Z,976.50
2018-03-15T11:14:16.246Z,976.31
2018-03-15T11:15:16.275Z,976.28
2018-03-15T11:16:16.305Z,976.26
2018-03-15T11:17:16.335Z,976.32
2018-03-15T11:18:16.368Z,976.41
2018-03-15T11:19:16.397Z,976.31
2018-03-15T11:20:16.426Z,976.24
2018-03-15T11:21:16.458Z,976.25
2018-03-15T11:22:16.486Z,976.20
2018-03-15T11:23:16.517Z,976.20
2018-03-15T11:24:16.548Z,976.19
2018-03-15T11:25:16.579Z,976.16
2018-03-15T11:26:16.608Z,976.10
2018-03-15T11:27:16.638Z,976.14
2018-03-15T11:28:16.669Z,976.15
2018-03-15T11:29:16.700Z,976.12
2018-03-15T11:30:16.729Z,976.05
2018-03-15T11:31:16.759Z,976.07
2018-03-15T11:32:16.790Z,976.17
2018-03-15T11:33:16.820Z,976.18
2018-03-15T11:34:16.849Z,976.11
2018-03-15T11:35:16.881Z,976.00
2018-03-15T11:36:16.911Z,976.04
2018-03-15T11:37:16.941Z,976.18
2018-03-15T11:38:16.969Z,976.24
2018-03-15T11:39:17.000Z,976.20
2018-03-15T11:40:17.031Z,976.02
2018-03-15T11:41:17.061Z,976.08
2018-03-15T11:42:17.091Z,976.35
2018-03-15T11:43:17.120Z,976.36
2018-03-15T11:44:17.151Z,976.38
2018-03-15T11:45:17.180Z,976.35
2018-03-15T11:46:17.213Z,976.30
2018-03-15T11:47:17.240Z,976.30
2018-03-15T11:48:17.270Z,976.29
2018-03-15T11:49:17.301Z,976.28
2018-03-15T11:50:17.327Z,976.32
2018-03-15T11:51:17.357Z,976.25
2018-03-15T11:52:17.389Z,976.26
2018-03-15T11:53:17.418Z,976.30
2018-03-15T11:54:17.447Z,976.34
2018-03-15T11:55:17.477Z,976.27
2018-03-15T11:56:17.506Z,976.30
2018-03-15T11:57:17.537Z,976.22
2018-03-15T11:58:17.565Z,976.22
2018-03-15T11:59:17.596Z,976.20
2018-03-15T12:00:17.628Z,976.16
2018-03-15T12:01:17.653Z,976.20
2018-03-15T12:02:17.682Z,976.25
2018-03-15T12:03:17.712Z,976.33
2018-03-15T12:04:17.740Z,976.29
2018-03-15T12:05:17.771Z,976.23
2018-03-15T12:06:17.800Z,976.09
2018-03-15T12:07:17.830Z,976.02
2018-03-15T12:08:17.863Z,976.07
2018-03-15T12:09:17.888Z,976.10
2018-03-15T12:10:17.917Z,976.17
2018-03-15T12:11:17.946Z,976.15
2018-03-15T12:12:17.975Z,976.06
2018-03-15T12:13:18.005Z,976.00
2018-03-15T12:14:18.033Z,976.07
2018-03-15T12:15:18.063Z,976.06
2018-03-15T12:16:18.093Z,976.03
2018-03-15T12:17:18.123Z,976.04
2018-03-15T12:18:18.150Z,976.08
2018-03-15T12:19:18.180Z,976.03
2018-03-15T12:20:18.209Z,975.96
2018-03-15T12:21:18.239Z,975.91
2018-03-15T12:22:18.268Z,975.92
2018-03-15T12:23:18.297Z,975.89
2018-03-15T12:24:18.327Z,975.79
2018-03-15T12:25:18.356Z,975.74
2018-03-15T12:26:18.396Z,975.73
2018-03-15T12:27:18.415Z,975.65
2018-03-15T12:28:18.444Z,975.58
2018-03-15T12:29:18.476Z,975.57